Aviation Digital Data Service (ADDS)

Output produced by TAFs form (2308 UTC 16 January 2018)
found at http://www.aviationweather.gov/adds/tafs/
 
KJAX 162256Z 08005KT 10SM BKN250 11/06 A3033 RMK AO2 SLP270 T01110061
KJAX 161720Z 1618/1718 06008KT P6SM SCT250 
     FM170000 VRB03KT P6SM BKN250 
     FM171200 30008G12KT P6SM OVC100